createdAt,value
2023-12-02T00:01:34.037Z,97351.72
2023-12-02T00:06:35.714Z,97357.81
2023-12-02T00:11:37.494Z,97345.47
2023-12-02T00:16:39.040Z,97332.91
2023-12-02T00:21:40.546Z,97328.91
2023-12-02T00:26:42.363Z,97316.13
2023-12-02T00:31:46.890Z,97294.88
2023-12-02T00:36:48.416Z,97281.53
2023-12-02T00:41:49.934Z,97289.25
2023-12-02T00:46:51.507Z,97291.59
2023-12-02T00:51:53.287Z,97277.16
2023-12-02T00:56:54.908Z,97271.28
2023-12-02T01:01:56.552Z,97284.06
2023-12-02T01:06:58.398Z,97291.44
2023-12-02T01:12:00.032Z,97290.94
2023-12-02T01:17:01.608Z,97290.44
2023-12-02T01:22:03.140Z,97273.16
2023-12-02T01:27:04.686Z,97258.63
2023-12-02T01:32:06.619Z,97279.56
2023-12-02T01:37:08.186Z,97281.88
2023-12-02T01:42:09.794Z,97262.38
2023-12-02T01:47:11.534Z,97273.16
2023-12-02T01:52:13.032Z,97265.66
2023-12-02T01:57:14.630Z,97257.66
2023-12-02T02:02:16.358Z,97260.41
2023-12-02T02:07:18.794Z,97271.72
2023-12-02T02:12:20.660Z,97267.84
2023-12-02T02:17:22.218Z,97271.78
2023-12-02T02:22:23.784Z,97255.03
2023-12-02T02:27:25.470Z,97245.34
2023-12-02T02:32:27.134Z,97245.84
2023-12-02T02:37:28.857Z,97241.38
2023-12-02T02:42:31.026Z,97227.28
2023-12-02T02:47:32.672Z,97220.31
2023-12-02T02:52:34.360Z,97222.78
2023-12-02T02:57:35.950Z,97208.38
2023-12-02T03:02:37.596Z,97194.53
2023-12-02T03:07:39.407Z,97206.41
2023-12-02T03:12:40.898Z,97194.19
2023-12-02T03:17:42.500Z,97182.94
2023-12-02T03:22:44.146Z,97202.97
2023-12-02T03:27:45.689Z,97209.47
2023-12-02T03:32:50.598Z,97220.00
2023-12-02T03:37:52.152Z,97206.84
2023-12-02T03:42:53.808Z,97219.13
2023-12-02T03:47:56.244Z,97195.19
2023-12-02T03:53:00.009Z,97192.91
2023-12-02T03:58:03.311Z,97184.75
2023-12-02T04:03:04.966Z,97201.81
2023-12-02T04:08:06.585Z,97192.84
2023-12-02T04:13:08.325Z,97175.53
2023-12-02T04:18:09.952Z,97186.66
2023-12-02T04:23:11.544Z,97209.81
2023-12-02T04:28:13.252Z,97215.06
2023-12-02T04:33:15.007Z,97189.94
2023-12-02T04:38:16.796Z,97177.88
2023-12-02T04:43:20.713Z,97224.25
2023-12-02T04:48:22.270Z,97213.59
2023-12-02T04:53:24.017Z,62996.00
2023-12-02T04:58:26.482Z,62996.00
2023-12-02T05:03:28.144Z,62996.00
2023-12-02T05:08:30.045Z,62996.00
2023-12-02T05:13:31.924Z,62996.00
2023-12-02T05:18:33.714Z,62996.00
2023-12-02T05:23:35.327Z,62996.00
2023-12-02T05:28:37.301Z,62996.00
2023-12-02T05:33:38.997Z,62996.00
2023-12-02T05:38:40.642Z,62996.00
2023-12-02T05:43:42.271Z,62996.00
2023-12-02T05:48:44.207Z,62996.00
2023-12-02T05:53:46.029Z,62996.00
2023-12-02T05:58:47.930Z,62996.00
2023-12-02T06:03:51.624Z,62996.00
2023-12-02T06:08:53.365Z,62996.00
2023-12-02T06:13:55.479Z,62996.00
2023-12-02T06:18:57.367Z,62996.00
2023-12-02T06:24:02.328Z,62996.00
2023-12-02T06:29:05.058Z,62996.00
2023-12-02T06:34:07.177Z,62996.00
2023-12-02T06:39:11.181Z,62996.00
2023-12-02T06:44:12.752Z,62996.00
2023-12-02T06:49:14.432Z,62996.00
2023-12-02T06:54:16.145Z,62996.00
2023-12-02T06:59:20.750Z,62996.00
2023-12-02T07:04:22.350Z,62996.00
2023-12-02T07:09:24.226Z,62996.00
2023-12-02T07:14:25.884Z,62996.00
2023-12-02T07:19:27.853Z,62996.00
2023-12-02T09:04:18.739Z,97283.59
2023-12-02T09:09:20.584Z,97292.09
2023-12-02T09:14:22.155Z,97299.31
2023-12-02T09:19:23.829Z,97311.56
2023-12-02T09:24:26.263Z,97313.34
2023-12-02T09:29:27.826Z,97288.97
2023-12-02T11:23:36.113Z,97224.22
2023-12-02T11:51:28.364Z,97251.25
2023-12-02T11:56:29.960Z,97258.28
2023-12-02T12:01:31.508Z,97282.19
2023-12-02T12:06:33.162Z,97302.34
2023-12-02T12:11:34.754Z,97281.03
2023-12-02T12:16:42.685Z,97299.72
2023-12-02T12:21:45.315Z,97341.59
2023-12-02T12:26:47.062Z,97300.69
2023-12-02T12:31:48.622Z,97335.22
2023-12-02T12:36:50.161Z,97337.50
2023-12-02T12:41:51.740Z,97357.31
2023-12-02T12:46:53.343Z,97387.41
2023-12-02T12:55:25.580Z,97342.75
2023-12-02T13:00:27.980Z,97360.38
2023-12-02T13:05:29.925Z,97376.09
2023-12-02T13:10:32.694Z,97354.69
2023-12-02T13:15:34.318Z,97337.34
2023-12-02T13:20:35.898Z,97352.22
2023-12-02T13:25:37.479Z,97271.59
2023-12-02T13:30:39.626Z,97291.22
2023-12-02T13:35:43.322Z,97336.00
2023-12-02T13:40:44.904Z,97325.19
2023-12-02T13:45:46.677Z,97325.19
2023-12-02T13:50:48.507Z,97371.44
2023-12-02T13:55:50.024Z,97373.69
2023-12-02T14:00:51.572Z,97384.59
2023-12-02T14:05:53.132Z,97346.53
2023-12-02T14:10:54.686Z,97349.50
2023-12-02T14:15:56.264Z,97378.28
2023-12-02T14:20:57.873Z,97374.16
2023-12-02T14:25:59.574Z,97408.31
2023-12-02T14:31:01.250Z,97441.16
2023-12-02T14:36:02.870Z,97463.25
2023-12-02T14:41:04.502Z,97464.72
2023-12-02T14:46:06.066Z,97465.91
2023-12-02T14:51:07.830Z,97482.25
2023-12-02T14:56:09.385Z,97482.94
2023-12-02T15:01:10.885Z,97476.38
2023-12-02T15:06:13.955Z,97500.44
2023-12-02T15:11:15.727Z,97489.97
2023-12-02T15:16:17.324Z,97473.47
2023-12-02T15:21:20.434Z,97475.44
2023-12-02T15:26:24.511Z,97481.66
2023-12-02T15:31:26.004Z,97506.50
2023-12-02T15:36:27.653Z,97533.41
2023-12-02T15:41:29.234Z,97561.22
2023-12-02T15:46:31.382Z,97569.06
2023-12-02T15:51:33.672Z,97545.66
2023-12-02T15:56:35.411Z,97587.75
2023-12-02T16:01:38.132Z,97616.34
2023-12-02T16:06:39.907Z,97619.13
2023-12-02T16:11:41.623Z,97653.69
2023-12-02T16:16:43.250Z,97643.09
2023-12-02T16:21:44.996Z,97620.53
2023-12-02T16:26:46.984Z,97606.13
2023-12-02T16:31:48.694Z,97622.53
2023-12-02T16:36:50.333Z,97618.72
2023-12-02T16:41:52.042Z,97597.97
2023-12-02T16:46:53.553Z,97666.47
2023-12-02T16:51:55.139Z,97727.72
2023-12-02T16:56:56.730Z,97752.81
2023-12-02T17:01:58.473Z,97766.47
2023-12-02T17:07:00.284Z,97798.53
2023-12-02T17:12:05.284Z,97810.78
2023-12-02T17:17:07.087Z,97830.84
2023-12-02T17:22:16.969Z,97858.09
2023-12-02T17:27:18.536Z,97873.06
2023-12-02T17:32:20.156Z,97884.09
2023-12-02T17:37:21.764Z,97881.19
2023-12-02T17:42:23.445Z,97900.59
2023-12-02T17:47:25.252Z,97928.41
2023-12-02T17:52:27.085Z,97943.25
2023-12-02T17:57:28.621Z,97926.16
2023-12-02T18:02:30.545Z,97899.06
2023-12-02T18:07:32.161Z,97914.78
2023-12-02T18:12:34.729Z,97920.28
2023-12-02T18:17:36.420Z,97921.66
2023-12-02T18:22:37.937Z,97946.03
2023-12-02T18:27:40.058Z,97945.19
2023-12-02T18:32:41.829Z,97975.44
2023-12-02T18:37:43.639Z,98005.59
2023-12-02T18:42:45.256Z,98010.53
2023-12-02T18:47:46.941Z,98031.84
2023-12-02T18:52:48.537Z,98058.66
2023-12-02T18:57:50.091Z,98085.66
2023-12-02T19:02:51.722Z,98085.53
2023-12-02T19:07:53.466Z,98078.88
2023-12-02T19:12:55.108Z,98087.16
2023-12-02T19:17:56.724Z,98072.13
2023-12-02T19:22:58.322Z,98103.50
2023-12-02T19:28:00.137Z,98122.38
2023-12-02T19:33:01.939Z,98124.31
2023-12-02T19:38:03.630Z,98139.28
2023-12-02T19:43:05.389Z,98140.69
2023-12-02T19:48:07.903Z,98143.56
2023-12-02T19:53:10.036Z,98171.50
2023-12-02T19:58:11.910Z,98194.88
2023-12-02T20:03:13.686Z,98190.66
2023-12-02T20:08:15.840Z,98212.25
2023-12-02T20:13:25.183Z,98225.75
2023-12-02T20:18:27.539Z,98254.22
2023-12-02T20:23:29.056Z,98251.03
2023-12-02T20:33:58.531Z,98240.59
2023-12-02T20:44:00.492Z,98252.78
2023-12-02T20:54:02.103Z,98343.84
2023-12-02T21:04:04.316Z,98374.28
2023-12-02T21:14:06.482Z,98375.56
2023-12-02T21:24:08.440Z,98409.66
2023-12-02T21:34:10.469Z,98414.97
2023-12-02T21:44:12.662Z,98412.59
2023-12-02T21:54:14.852Z,98459.66
2023-12-02T22:04:16.539Z,98512.38
2023-12-02T22:14:18.174Z,98536.00
2023-12-02T22:24:19.940Z,98556.44
2023-12-02T22:34:21.959Z,98595.84
2023-12-02T22:44:23.690Z,98633.00
2023-12-02T22:54:25.274Z,98653.28
2023-12-02T23:04:27.240Z,98708.47
2023-12-02T23:14:28.920Z,98697.81
2023-12-02T23:24:30.567Z,98717.38
2023-12-02T23:34:32.508Z,98718.69
2023-12-02T23:44:34.163Z,98718.47
2023-12-02T23:54:36.569Z,98743.59
